Time;durP1;ratioP1;P1;durP2;ratioP2;P2;SDS_P1;SDS_P2;PMS_P1;PMS_P2;Temp;Humidity;BMP_temperature;BMP_pressure;BME280_temperature;BME280_humidity;BME280_pressure;Samples;Min_cycle;Max_cycle;Signal;HPM_P1;HPM_P2
2023/06/04 00:02:16;;;;;;;10.27;6.13;;;17.60;58.10;;;;;;5008610;28;20038;-62
2023/06/04 00:04:42;;;;;;;8.88;6.15;;;17.60;58.20;;;;;;5008095;28;20089;-62
2023/06/04 00:07:07;;;;;;;11.35;6.20;;;17.60;58.20;;;;;;5008869;28;20030;-62
2023/06/04 00:09:33;;;;;;;6.05;5.45;;;17.50;58.20;;;;;;5008459;28;20080;-62
2023/06/04 00:11:59;;;;;;;8.32;5.75;;;17.50;58.30;;;;;;5005977;28;20444;-62
2023/06/04 00:14:24;;;;;;;10.32;6.18;;;17.40;58.40;;;;;;5006997;28;20226;-63
2023/06/04 00:16:50;;;;;;;8.05;6.03;;;17.30;58.50;;;;;;5006560;28;20054;-62
2023/06/04 00:19:16;;;;;;;7.65;6.63;;;17.30;58.50;;;;;;5004639;28;20416;-62
2023/06/04 00:21:42;;;;;;;9.75;6.60;;;17.20;58.90;;;;;;5005225;28;20083;-62
2023/06/04 00:24:07;;;;;;;8.73;6.22;;;17.20;59.00;;;;;;5006522;28;20042;-62
2023/06/04 00:26:33;;;;;;;6.68;5.60;;;17.10;59.10;;;;;;5004369;28;20140;-62
2023/06/04 00:29:00;;;;;;;6.68;5.68;;;17.10;59.30;;;;;;5006822;28;20038;-62
2023/06/04 00:31:26;;;;;;;8.82;5.80;;;17.10;59.30;;;;;;5007283;28;20117;-62
2023/06/04 00:33:51;;;;;;;9.02;6.22;;;17.10;59.30;;;;;;5004965;28;20109;-63
2023/06/04 00:36:17;;;;;;;6.10;5.38;;;17.00;59.30;;;;;;5004483;28;20465;-63
2023/06/04 00:38:43;;;;;;;7.25;6.28;;;17.00;59.30;;;;;;5003398;28;20511;-62
2023/06/04 00:41:08;;;;;;;6.50;5.47;;;17.00;59.30;;;;;;5001393;28;20049;-62
2023/06/04 00:43:35;;;;;;;7.97;6.28;;;17.00;59.30;;;;;;5004452;28;21328;-62
2023/06/04 00:46:02;;;;;;;8.40;6.13;;;17.00;59.30;;;;;;5005412;28;20037;-62
2023/06/04 00:48:30;;;;;;;8.00;6.05;;;16.90;59.30;;;;;;4997808;28;20299;-62
2023/06/04 00:50:56;;;;;;;10.93;7.40;;;16.80;59.40;;;;;;5000402;28;20054;-62
2023/06/04 00:53:24;;;;;;;9.88;7.20;;;16.80;59.60;;;;;;5002589;28;20102;-62
2023/06/04 00:55:50;;;;;;;10.50;7.50;;;16.70;59.80;;;;;;5001524;28;20099;-62
2023/06/04 00:58:16;;;;;;;9.55;7.28;;;16.50;59.90;;;;;;5003497;28;20037;-62
2023/06/04 01:00:45;;;;;;;8.63;7.18;;;16.40;60.30;;;;;;4996473;28;20042;-62
2023/06/04 01:03:16;;;;;;;10.30;6.43;;;16.30;60.60;;;;;;5002566;28;20077;-62
2023/06/04 01:06:21;;;;;;;8.02;6.30;;;16.20;61.20;;;;;;5004067;28;20034;-62
2023/06/04 01:08:49;;;;;;;7.72;5.63;;;16.10;62.20;;;;;;5000677;28;20042;-62
2023/06/04 01:11:15;;;;;;;9.95;6.32;;;16.00;60.90;;;;;;4999843;28;20065;-62
2023/06/04 01:13:40;;;;;;;9.05;6.22;;;15.90;61.20;;;;;;5001558;28;20034;-62
2023/06/04 01:16:08;;;;;;;9.65;6.00;;;15.80;61.40;;;;;;5000670;28;20852;-62
2023/06/04 01:18:37;;;;;;;7.50;6.13;;;15.80;61.70;;;;;;4999242;28;20064;-62
2023/06/04 01:21:07;;;;;;;7.97;5.75;;;15.70;61.70;;;;;;4998640;28;20037;-62
2023/06/04 01:23:45;;;;;;;6.10;5.40;;;15.70;62.00;;;;;;5000158;28;20567;-62
2023/06/04 01:26:12;;;;;;;8.50;6.03;;;15.70;62.10;;;;;;4999669;28;20441;-62
2023/06/04 01:28:38;;;;;;;7.40;5.32;;;15.70;61.90;;;;;;4999878;28;20038;-63
2023/06/04 01:31:07;;;;;;;6.65;5.65;;;15.70;61.90;;;;;;5000752;28;20033;-62
2023/06/04 01:33:33;;;;;;;7.05;5.95;;;15.80;62.10;;;;;;5001124;28;20165;-62
2023/06/04 01:35:59;;;;;;;7.53;5.32;;;15.80;62.00;;;;;;4999742;28;20202;-61
2023/06/04 01:38:25;;;;;;;5.72;5.13;;;15.80;61.90;;;;;;4997874;28;20128;-61
2023/06/04 01:40:52;;;;;;;5.85;5.25;;;15.80;62.00;;;;;;5000012;28;20551;-62
2023/06/04 01:43:18;;;;;;;6.38;5.38;;;15.80;61.80;;;;;;5002748;28;20091;-63
2023/06/04 01:45:44;;;;;;;8.05;5.13;;;15.90;61.70;;;;;;4997545;28;20029;-62
2023/06/04 01:48:10;;;;;;;7.28;5.55;;;15.90;61.60;;;;;;4997987;28;20509;-62
2023/06/04 01:50:35;;;;;;;6.97;5.35;;;16.00;61.50;;;;;;5000594;28;20545;-62
2023/06/04 01:53:01;;;;;;;9.07;5.63;;;15.90;61.40;;;;;;5000500;28;20038;-62
2023/06/04 01:55:28;;;;;;;6.97;5.15;;;15.90;61.30;;;;;;5006613;28;20038;-62
2023/06/04 01:57:53;;;;;;;7.28;5.68;;;15.90;61.20;;;;;;5006538;28;20030;-62
2023/06/04 02:00:19;;;;;;;6.13;5.13;;;15.90;61.20;;;;;;5006431;28;20111;-62
2023/06/04 02:02:45;;;;;;;7.45;4.95;;;15.90;61.00;;;;;;5003023;28;20044;-62
2023/06/04 02:05:11;;;;;;;5.22;4.72;;;15.90;60.90;;;;;;5000456;28;20041;-62
2023/06/04 02:07:42;;;;;;;5.68;4.50;;;15.90;60.60;;;;;;4998935;28;20560;-62
2023/06/04 02:10:09;;;;;;;7.05;4.05;;;15.90;60.60;;;;;;4998800;28;20560;-61
2023/06/04 02:12:37;;;;;;;5.60;4.38;;;15.90;60.30;;;;;;4998368;28;20038;-62
2023/06/04 02:15:03;;;;;;;5.55;4.40;;;15.90;60.10;;;;;;5002650;28;20038;-62
2023/06/04 02:17:32;;;;;;;6.90;4.40;;;15.90;60.00;;;;;;4998442;28;20033;-61
2023/06/04 02:19:58;;;;;;;5.85;4.20;;;15.90;60.00;;;;;;4999603;28;20948;-61
2023/06/04 02:22:24;;;;;;;4.55;4.07;;;15.90;59.80;;;;;;4998754;28;20430;-61
2023/06/04 02:24:50;;;;;;;4.40;3.95;;;15.90;59.60;;;;;;4997695;28;20033;-62
2023/06/04 02:27:15;;;;;;;4.18;3.60;;;15.90;59.70;;;;;;4998183;28;20034;-62
2023/06/04 02:29:41;;;;;;;6.15;4.03;;;15.90;59.50;;;;;;5003510;28;20030;-62
2023/06/04 02:32:07;;;;;;;4.80;3.80;;;15.90;59.50;;;;;;4998955;28;20563;-62
2023/06/04 02:34:36;;;;;;;6.93;3.88;;;15.90;59.40;;;;;;4998210;28;20391;-62
2023/06/04 02:37:02;;;;;;;4.38;3.47;;;15.80;59.30;;;;;;4999420;28;20042;-61
2023/06/04 02:39:28;;;;;;;5.13;3.70;;;15.80;59.30;;;;;;4998272;28;20069;-62
2023/06/04 02:41:54;;;;;;;4.40;3.65;;;15.80;59.30;;;;;;4999157;28;20189;-62
2023/06/04 02:44:20;;;;;;;4.00;3.60;;;15.70;59.30;;;;;;4997087;28;20523;-62
2023/06/04 02:46:45;;;;;;;6.80;3.80;;;15.70;59.30;;;;;;4999086;28;20049;-62
2023/06/04 02:49:13;;;;;;;4.47;3.65;;;15.70;59.30;;;;;;5001976;28;20042;-61
2023/06/04 02:51:42;;;;;;;4.07;3.65;;;15.60;59.20;;;;;;5003082;28;20084;-60
2023/06/04 02:54:08;;;;;;;4.07;3.25;;;15.70;59.30;;;;;;5002563;28;20053;-62
2023/06/04 02:56:35;;;;;;;4.30;3.33;;;15.60;59.20;;;;;;5001342;28;20435;-62
2023/06/04 02:59:00;;;;;;;4.57;3.58;;;15.60;59.40;;;;;;5002652;28;20038;-62
2023/06/04 03:01:26;;;;;;;4.82;3.17;;;15.60;59.40;;;;;;5003335;28;20038;-62
2023/06/04 03:03:53;;;;;;;4.28;3.17;;;15.60;59.40;;;;;;5003620;28;20548;-62
2023/06/04 03:06:21;;;;;;;4.82;3.35;;;15.60;59.30;;;;;;5002061;28;20093;-62
2023/06/04 03:08:47;;;;;;;3.60;3.30;;;15.60;59.20;;;;;;5001188;28;20125;-62
2023/06/04 03:11:13;;;;;;;4.30;3.30;;;15.50;59.10;;;;;;5000442;28;20030;-62
2023/06/04 03:13:39;;;;;;;5.80;3.08;;;15.50;59.10;;;;;;5002009;28;20119;-62
2023/06/04 03:16:09;;;;;;;4.85;3.17;;;15.50;59.00;;;;;;5006530;28;20651;-62
2023/06/04 03:18:39;;;;;;;4.72;2.95;;;15.50;58.90;;;;;;5001899;28;20041;-62
2023/06/04 03:21:05;;;;;;;4.25;3.20;;;15.50;58.90;;;;;;5004366;28;20042;-62
2023/06/04 03:23:32;;;;;;;4.13;2.75;;;15.50;58.80;;;;;;5003099;28;20030;-62
2023/06/04 03:25:57;;;;;;;4.03;2.60;;;15.40;58.70;;;;;;5007896;28;20029;-62
2023/06/04 03:28:23;;;;;;;3.72;2.60;;;15.40;58.80;;;;;;5005228;28;20041;-62
2023/06/04 03:30:49;;;;;;;4.05;2.78;;;15.30;58.70;;;;;;5001204;28;20124;-60
2023/06/04 03:33:14;;;;;;;3.42;2.30;;;15.30;58.70;;;;;;5002919;28;20077;-62
2023/06/04 03:35:41;;;;;;;3.78;2.65;;;15.30;58.70;;;;;;5002558;28;20034;-62
2023/06/04 03:38:06;;;;;;;5.18;2.85;;;15.30;58.80;;;;;;5002080;28;20037;-61
2023/06/04 03:40:32;;;;;;;3.25;2.60;;;15.30;58.80;;;;;;5000585;28;20037;-62
2023/06/04 03:42:58;;;;;;;4.38;2.40;;;15.20;58.80;;;;;;5000743;28;20072;-61
2023/06/04 03:45:23;;;;;;;4.05;2.65;;;15.20;58.80;;;;;;5001923;28;20077;-61
2023/06/04 03:47:49;;;;;;;3.55;2.45;;;15.20;58.80;;;;;;5003618;28;20038;-63
2023/06/04 03:50:15;;;;;;;3.72;2.22;;;15.20;58.90;;;;;;5001200;28;20093;-62
2023/06/04 03:52:40;;;;;;;3.22;2.50;;;15.20;58.90;;;;;;5000501;28;20034;-62
2023/06/04 03:55:07;;;;;;;4.10;2.47;;;15.20;59.00;;;;;;5006333;28;20038;-62
2023/06/04 03:57:32;;;;;;;4.25;2.33;;;15.20;58.90;;;;;;5006426;28;20045;-61
2023/06/04 03:59:58;;;;;;;4.68;2.60;;;15.20;58.90;;;;;;5004124;28;20038;-61
2023/06/04 04:02:23;;;;;;;3.95;2.60;;;15.10;58.90;;;;;;5004493;28;20418;-61
2023/06/04 04:04:49;;;;;;;2.67;2.45;;;15.10;59.00;;;;;;5004652;28;20041;-62
2023/06/04 04:07:15;;;;;;;3.05;2.60;;;15.10;59.00;;;;;;5004899;28;20056;-62
2023/06/04 04:09:41;;;;;;;4.15;2.50;;;15.10;59.00;;;;;;5001161;28;20025;-62
2023/06/04 04:12:07;;;;;;;3.30;2.50;;;15.10;59.00;;;;;;5001510;28;20522;-61
2023/06/04 04:14:32;;;;;;;3.50;2.30;;;15.10;59.10;;;;;;5000257;28;20523;-61
2023/06/04 04:16:58;;;;;;;3.72;2.50;;;15.10;59.20;;;;;;5002777;28;20038;-62
2023/06/04 04:19:24;;;;;;;5.75;2.33;;;15.10;59.30;;;;;;5001776;28;20034;-62
2023/06/04 04:21:50;;;;;;;3.05;2.55;;;15.10;59.30;;;;;;5000935;28;20061;-60
2023/06/04 04:24:26;;;;;;;2.90;2.30;;;15.20;59.20;;;;;;5004380;28;20167;-62
2023/06/04 04:26:53;;;;;;;3.22;2.03;;;15.10;59.40;;;;;;5001786;28;20046;-60
2023/06/04 04:29:24;;;;;;;3.45;2.30;;;15.10;59.20;;;;;;5002950;28;20038;-62
2023/06/04 04:31:56;;;;;;;3.03;2.53;;;15.10;59.20;;;;;;5001781;28;20064;-63
2023/06/04 04:34:23;;;;;;;2.30;2.08;;;15.20;59.40;;;;;;5004085;28;20084;-62
2023/06/04 04:36:52;;;;;;;2.63;2.30;;;15.20;59.30;;;;;;5001049;28;20600;-62
2023/06/04 04:39:24;;;;;;;3.42;2.10;;;15.20;59.30;;;;;;5003039;28;20498;-63
2023/06/04 04:41:49;;;;;;;2.70;2.40;;;15.20;59.50;;;;;;5000526;28;20034;-62
2023/06/04 04:44:15;;;;;;;2.97;2.20;;;15.20;59.20;;;;;;5002141;28;20100;-62
2023/06/04 04:46:41;;;;;;;3.05;2.13;;;15.20;59.30;;;;;;5001077;28;20113;-62
2023/06/04 04:49:06;;;;;;;2.45;1.98;;;15.30;59.40;;;;;;5004636;28;20030;-62
2023/06/04 04:51:32;;;;;;;3.13;2.28;;;15.20;59.40;;;;;;5003506;28;20044;-62
2023/06/04 04:54:00;;;;;;;3.03;1.95;;;15.30;59.40;;;;;;5003789;28;20048;-62
2023/06/04 04:56:26;;;;;;;2.88;2.00;;;15.30;59.40;;;;;;5003530;28;20113;-62
2023/06/04 04:58:52;;;;;;;3.70;2.25;;;15.30;59.30;;;;;;5002907;28;20040;-63
2023/06/04 05:01:17;;;;;;;2.15;1.70;;;15.30;59.20;;;;;;4999831;28;20042;-61
2023/06/04 05:03:43;;;;;;;4.93;1.83;;;15.30;59.20;;;;;;5003534;28;20029;-62
2023/06/04 05:06:09;;;;;;;2.50;2.10;;;15.40;59.10;;;;;;5001472;28;20476;-62
2023/06/04 05:08:35;;;;;;;2.22;2.03;;;15.40;59.00;;;;;;5001069;28;20714;-62
2023/06/04 05:11:00;;;;;;;2.20;1.92;;;15.40;58.90;;;;;;5000203;28;20049;-62
2023/06/04 05:13:26;;;;;;;3.22;1.92;;;15.40;58.90;;;;;;5000881;28;20034;-61
2023/06/04 05:15:54;;;;;;;2.83;1.90;;;15.40;58.80;;;;;;5001873;28;20034;-62
2023/06/04 05:18:20;;;;;;;4.88;1.95;;;15.50;58.80;;;;;;5001978;28;20331;-62
2023/06/04 05:20:46;;;;;;;6.22;1.88;;;15.60;58.80;;;;;;5000834;28;20315;-62
2023/06/04 05:23:12;;;;;;;2.55;1.88;;;15.60;58.80;;;;;;5002195;28;20035;-62
2023/06/04 05:25:38;;;;;;;2.83;1.70;;;15.60;58.90;;;;;;5004431;28;20037;-62
2023/06/04 05:28:05;;;;;;;3.42;1.85;;;15.70;58.80;;;;;;5004403;28;20045;-63
2023/06/04 05:30:31;;;;;;;2.55;1.90;;;15.70;58.80;;;;;;5001419;28;20480;-62
2023/06/04 05:32:57;;;;;;;4.07;1.70;;;15.80;58.80;;;;;;5001110;28;20037;-62
2023/06/04 05:35:22;;;;;;;2.50;1.77;;;15.80;58.80;;;;;;5003124;28;20062;-62
2023/06/04 05:37:53;;;;;;;1.75;1.65;;;15.90;58.90;;;;;;5002758;28;20099;-62
2023/06/04 05:40:19;;;;;;;2.70;2.00;;;16.00;58.90;;;;;;5002626;28;20038;-61
2023/06/04 05:42:45;;;;;;;2.55;1.73;;;16.10;58.80;;;;;;5004645;28;20120;-62
2023/06/04 05:45:10;;;;;;;1.80;1.60;;;16.20;58.70;;;;;;5003199;28;20116;-62
2023/06/04 05:47:36;;;;;;;4.15;1.98;;;16.20;58.50;;;;;;5004897;28;20077;-62
2023/06/04 05:50:02;;;;;;;3.30;1.90;;;16.20;58.30;;;;;;5003626;28;20469;-62
2023/06/04 05:52:28;;;;;;;2.28;1.90;;;16.30;58.10;;;;;;5003474;28;20045;-62
2023/06/04 05:54:53;;;;;;;3.30;1.90;;;16.40;58.00;;;;;;5004489;28;20091;-62
2023/06/04 05:57:20;;;;;;;4.63;2.08;;;16.40;58.00;;;;;;5004592;28;20037;-62
2023/06/04 05:59:46;;;;;;;2.70;1.80;;;16.50;57.90;;;;;;5003047;28;20037;-62
2023/06/04 06:02:13;;;;;;;4.57;2.38;;;16.50;57.90;;;;;;5001975;28;20532;-62
2023/06/04 06:04:38;;;;;;;2.50;2.17;;;16.60;57.80;;;;;;5002684;28;20046;-62
2023/06/04 06:07:04;;;;;;;5.63;2.33;;;16.60;57.80;;;;;;5004030;28;20107;-62
2023/06/04 06:09:30;;;;;;;2.42;2.15;;;16.60;57.80;;;;;;5000507;28;20038;-62
2023/06/04 06:11:55;;;;;;;2.70;2.15;;;16.70;57.90;;;;;;4999083;28;20029;-62
2023/06/04 06:14:23;;;;;;;4.30;2.35;;;16.70;57.90;;;;;;4999437;28;20639;-62
2023/06/04 06:16:49;;;;;;;2.85;2.28;;;16.80;58.00;;;;;;4998243;28;20037;-62
2023/06/04 06:19:15;;;;;;;3.00;2.10;;;16.90;58.00;;;;;;4998614;28;20046;-62
2023/06/04 06:21:40;;;;;;;2.67;2.05;;;16.90;58.10;;;;;;5001949;28;20449;-62
2023/06/04 06:24:06;;;;;;;2.67;2.20;;;17.00;58.00;;;;;;4982406;28;20041;-62
2023/06/04 06:26:31;;;;;;;4.10;2.47;;;17.10;58.00;;;;;;5001520;28;20045;-62
2023/06/04 06:28:57;;;;;;;3.67;2.38;;;17.10;57.90;;;;;;5001393;28;20706;-62
2023/06/04 06:31:23;;;;;;;3.50;2.35;;;17.20;57.90;;;;;;4998431;28;20042;-62
2023/06/04 06:33:48;;;;;;;3.20;2.80;;;17.30;57.90;;;;;;5002465;28;20494;-62
2023/06/04 06:36:18;;;;;;;3.42;2.40;;;17.40;57.80;;;;;;5000784;28;20526;-62
2023/06/04 06:38:44;;;;;;;3.80;2.40;;;17.40;57.60;;;;;;5000759;28;20034;-61
2023/06/04 06:41:10;;;;;;;2.92;2.50;;;17.50;57.60;;;;;;4999952;28;20026;-62
2023/06/04 06:43:36;;;;;;;3.30;2.40;;;17.60;57.40;;;;;;5002328;28;20473;-61
2023/06/04 06:46:02;;;;;;;3.95;2.42;;;17.60;57.40;;;;;;5001880;28;20081;-62
2023/06/04 06:48:27;;;;;;;3.78;2.80;;;17.70;57.50;;;;;;4998691;28;20485;-61
2023/06/04 06:50:54;;;;;;;4.15;2.42;;;17.80;57.50;;;;;;5000735;28;20121;-62
2023/06/04 06:53:20;;;;;;;4.05;2.85;;;17.80;57.50;;;;;;4998790;28;20073;-62
2023/06/04 06:55:45;;;;;;;3.40;2.55;;;17.90;57.40;;;;;;4998862;28;20114;-62
2023/06/04 06:58:11;;;;;;;3.63;2.47;;;17.90;57.30;;;;;;5001981;28;20033;-61
2023/06/04 07:00:37;;;;;;;4.82;2.35;;;18.00;57.30;;;;;;4998258;28;20045;-62
2023/06/04 07:03:03;;;;;;;3.55;2.38;;;18.00;57.00;;;;;;4996816;28;20042;-63
2023/06/04 07:05:29;;;;;;;4.82;2.80;;;18.10;56.90;;;;;;5002399;28;20061;-62
2023/06/04 07:07:57;;;;;;;7.25;2.58;;;18.20;56.90;;;;;;5001766;28;20046;-62
2023/06/04 07:10:23;;;;;;;3.30;2.55;;;18.30;56.90;;;;;;5000675;28;20046;-62
2023/06/04 07:12:48;;;;;;;2.92;2.58;;;18.30;56.60;;;;;;5000634;28;20061;-62
2023/06/04 07:15:14;;;;;;;3.10;2.80;;;18.40;56.40;;;;;;5002571;28;20341;-62
2023/06/04 07:17:40;;;;;;;4.80;3.15;;;18.50;56.50;;;;;;5000438;28;20038;-62
2023/06/04 07:20:07;;;;;;;3.47;2.97;;;18.50;56.30;;;;;;4999380;28;20126;-62
2023/06/04 07:22:33;;;;;;;2.95;2.35;;;18.50;56.40;;;;;;5000513;28;20581;-62
2023/06/04 07:24:59;;;;;;;4.50;3.10;;;18.60;56.60;;;;;;4995301;28;20512;-64
2023/06/04 07:27:24;;;;;;;10.25;5.10;;;18.60;56.60;;;;;;4994990;28;20417;-61
2023/06/04 07:29:50;;;;;;;4.70;3.25;;;18.70;56.30;;;;;;4995205;28;20061;-62
2023/06/04 07:32:16;;;;;;;2.63;2.42;;;18.80;56.20;;;;;;4984320;28;20121;-62
2023/06/04 07:34:41;;;;;;;3.60;2.67;;;18.80;56.90;;;;;;4994964;28;20044;-62
2023/06/04 07:37:09;;;;;;;12.65;6.75;;;18.90;56.20;;;;;;5003135;28;21363;-61
2023/06/04 07:39:35;;;;;;;5.70;4.13;;;19.00;56.30;;;;;;4998811;28;20030;-62
2023/06/04 07:42:00;;;;;;;4.07;3.60;;;19.00;55.90;;;;;;5002873;28;20088;-62
2023/06/04 07:44:26;;;;;;;3.53;3.17;;;19.10;56.00;;;;;;5003382;28;20413;-61
2023/06/04 07:46:52;;;;;;;4.82;2.72;;;19.20;56.10;;;;;;5000169;28;20774;-62
2023/06/04 07:49:17;;;;;;;4.85;2.50;;;19.20;56.30;;;;;;5000059;28;20052;-62
2023/06/04 07:51:43;;;;;;;3.28;2.58;;;19.30;56.30;;;;;;5002377;28;20048;-62
2023/06/04 07:54:09;;;;;;;3.13;2.70;;;19.40;56.10;;;;;;5005611;28;20065;-62
2023/06/04 07:56:35;;;;;;;4.85;2.78;;;19.50;55.90;;;;;;5004670;28;20107;-61
2023/06/04 07:59:00;;;;;;;3.38;2.47;;;19.60;55.80;;;;;;5005010;28;20045;-62
2023/06/04 08:01:26;;;;;;;4.45;2.60;;;19.70;55.80;;;;;;5006332;28;20099;-62
2023/06/04 08:03:51;;;;;;;3.75;2.60;;;19.80;55.60;;;;;;4998670;28;20042;-62
2023/06/04 08:06:17;;;;;;;3.22;2.60;;;19.90;55.50;;;;;;5000710;28;20117;-61
2023/06/04 08:08:45;;;;;;;3.88;2.50;;;20.00;55.60;;;;;;5001942;28;20579;-62
2023/06/04 08:11:11;;;;;;;3.08;2.55;;;20.10;55.60;;;;;;4997799;28;20124;-60
2023/06/04 08:13:37;;;;;;;2.75;2.40;;;20.20;55.30;;;;;;4999457;28;20030;-62
2023/06/04 08:16:02;;;;;;;4.28;2.60;;;20.30;55.00;;;;;;5002940;28;20485;-61
2023/06/04 08:18:28;;;;;;;2.90;2.30;;;20.40;54.90;;;;;;5001336;28;20034;-61
2023/06/04 08:20:54;;;;;;;2.55;2.35;;;20.50;54.90;;;;;;5003745;28;20168;-62
2023/06/04 08:23:20;;;;;;;3.22;2.35;;;20.60;54.90;;;;;;4997814;28;20056;-62
2023/06/04 08:25:46;;;;;;;2.88;2.38;;;20.70;54.90;;;;;;5003955;28;20552;-62
2023/06/04 08:28:14;;;;;;;3.72;2.38;;;20.90;54.90;;;;;;4989471;28;20443;-61
2023/06/04 08:30:39;;;;;;;2.92;2.45;;;21.00;54.30;;;;;;5002438;28;20513;-62
2023/06/04 08:33:05;;;;;;;2.58;2.17;;;20.90;53.90;;;;;;4999066;28;20033;-62
2023/06/04 08:35:30;;;;;;;3.08;2.08;;;21.20;53.80;;;;;;4998513;28;20029;-62
2023/06/04 08:37:56;;;;;;;2.42;2.17;;;21.30;53.70;;;;;;5003074;28;20029;-62
2023/06/04 08:40:22;;;;;;;2.45;2.22;;;21.40;53.30;;;;;;5000499;28;20057;-62
2023/06/04 08:42:48;;;;;;;2.75;2.38;;;21.50;53.10;;;;;;5002921;28;20053;-63
2023/06/04 08:45:17;;;;;;;2.42;1.85;;;21.50;52.90;;;;;;4999266;28;20041;-62
2023/06/04 08:47:48;;;;;;;4.53;2.50;;;21.70;53.10;;;;;;4998033;28;20053;-61
2023/06/04 08:50:20;;;;;;;2.50;1.98;;;21.80;52.60;;;;;;4996069;28;20038;-63
2023/06/04 08:52:46;;;;;;;2.95;2.40;;;21.90;52.60;;;;;;5001733;28;20038;-62
2023/06/04 08:55:14;;;;;;;5.47;2.17;;;22.00;52.30;;;;;;4999358;28;20034;-63
2023/06/04 08:57:40;;;;;;;4.20;2.20;;;22.20;52.10;;;;;;5001981;28;20085;-62
2023/06/04 09:00:08;;;;;;;2.33;2.13;;;22.20;52.00;;;;;;4999979;28;20045;-62
2023/06/04 09:02:39;;;;;;;2.10;1.90;;;22.30;51.80;;;;;;4999661;28;20501;-63
2023/06/04 09:05:10;;;;;;;2.83;2.33;;;22.50;51.70;;;;;;5004356;28;20042;-61
2023/06/04 09:07:37;;;;;;;3.70;2.50;;;22.60;51.60;;;;;;5000789;28;20628;-61
2023/06/04 09:10:04;;;;;;;2.88;2.10;;;22.70;50.80;;;;;;4999666;28;20033;-62
2023/06/04 09:12:30;;;;;;;3.92;2.20;;;22.80;50.80;;;;;;4999437;28;20294;-62
2023/06/04 09:14:56;;;;;;;2.63;2.03;;;22.90;50.70;;;;;;4999172;28;20045;-61
2023/06/04 09:17:25;;;;;;;4.18;2.38;;;23.00;50.70;;;;;;5000480;28;20037;-62
2023/06/04 09:19:51;;;;;;;5.20;2.15;;;23.10;50.00;;;;;;4999886;28;20111;-62
2023/06/04 09:22:17;;;;;;;3.63;2.00;;;23.10;50.30;;;;;;5001641;28;20046;-62
2023/06/04 09:24:46;;;;;;;3.75;2.17;;;23.20;50.50;;;;;;5000584;28;20386;-61
2023/06/04 09:27:16;;;;;;;2.17;1.95;;;23.30;50.30;;;;;;4999920;28;20069;-62
2023/06/04 09:29:56;;;;;;;3.17;2.10;;;23.40;50.10;;;;;;4993783;28;20037;-62
2023/06/04 09:32:29;;;;;;;2.90;1.83;;;23.50;49.20;;;;;;4994269;28;20048;-62
2023/06/04 09:34:57;;;;;;;4.85;2.20;;;23.60;49.40;;;;;;4987591;28;20045;-62
2023/06/04 09:37:22;;;;;;;2.88;2.17;;;23.70;49.60;;;;;;4992792;28;20324;-62
2023/06/04 09:39:55;;;;;;;2.15;1.95;;;23.80;49.20;;;;;;4999243;28;20034;-63
2023/06/04 09:42:22;;;;;;;3.40;2.28;;;24.00;48.10;;;;;;4997563;28;20300;-62
2023/06/04 09:44:47;;;;;;;3.58;2.28;;;24.10;48.50;;;;;;4997439;28;20490;-63
2023/06/04 09:47:13;;;;;;;3.05;2.60;;;24.10;48.00;;;;;;4992755;28;20034;-62
2023/06/04 09:49:42;;;;;;;2.55;2.13;;;24.20;48.00;;;;;;5001629;28;20091;-62
2023/06/04 09:52:08;;;;;;;2.85;2.10;;;24.30;47.60;;;;;;5000452;28;20038;-63
2023/06/04 09:54:39;;;;;;;3.85;2.20;;;24.40;47.80;;;;;;4998583;28;20455;-62
2023/06/04 09:57:18;;;;;;;2.45;2.25;;;24.40;47.20;;;;;;5002187;28;20307;-62
2023/06/04 09:59:49;;;;;;;4.57;2.75;;;24.50;47.70;;;;;;5002506;28;20042;-63
2023/06/04 10:02:22;;;;;;;5.47;2.53;;;24.60;46.90;;;;;;5000122;28;20708;-61
2023/06/04 10:04:58;;;;;;;2.85;2.47;;;24.70;46.40;;;;;;5002698;28;20133;-62
2023/06/04 10:07:25;;;;;;;4.40;2.17;;;24.80;46.30;;;;;;5002428;28;20061;-63
2023/06/04 10:09:52;;;;;;;4.47;2.75;;;24.90;46.80;;;;;;5002282;28;20525;-63
2023/06/04 10:12:22;;;;;;;2.65;2.28;;;25.00;46.20;;;;;;4996924;28;20414;-63
2023/06/04 10:14:54;;;;;;;4.22;2.15;;;25.10;45.60;;;;;;5005599;28;20034;-62
2023/06/04 10:17:23;;;;;;;4.28;2.92;;;25.10;45.80;;;;;;5004792;28;20415;-61
2023/06/04 10:19:51;;;;;;;2.85;2.50;;;25.20;45.50;;;;;;5003793;28;20042;-63
2023/06/04 10:22:17;;;;;;;3.97;2.90;;;25.30;44.90;;;;;;5006120;28;20052;-63
2023/06/04 10:24:44;;;;;;;3.53;2.72;;;25.30;44.90;;;;;;5005266;28;20042;-63
2023/06/04 10:27:12;;;;;;;4.60;2.80;;;25.30;45.10;;;;;;5005500;28;20054;-62
2023/06/04 10:29:39;;;;;;;4.10;2.90;;;25.40;44.80;;;;;;5002438;28;20041;-62
2023/06/04 10:32:05;;;;;;;6.10;2.50;;;25.40;44.70;;;;;;5001339;28;20654;-63
2023/06/04 10:34:31;;;;;;;3.35;3.00;;;25.50;44.50;;;;;;5001670;28;20030;-62
2023/06/04 10:36:57;;;;;;;2.92;2.55;;;25.60;44.20;;;;;;5002543;28;20117;-63
2023/06/04 10:39:32;;;;;;;3.75;2.78;;;25.70;44.40;;;;;;5002483;28;20038;-62
2023/06/04 10:42:01;;;;;;;;;;;25.80;43.00;;;;;;5002953;28;20038;-62
2023/06/04 10:44:27;;;;;;;3.03;2.50;;;25.90;44.70;;;;;;5001678;28;19959;-63
2023/06/04 10:46:52;;;;;;;4.47;2.67;;;26.00;43.90;;;;;;4995284;28;20100;-63
2023/06/04 10:49:31;;;;;;;3.65;2.97;;;26.10;43.60;;;;;;4998925;28;20406;-63
2023/06/04 10:52:02;;;;;;;3.70;2.75;;;26.10;42.60;;;;;;4998748;28;20069;-64
2023/06/04 10:54:28;;;;;;;3.40;2.95;;;26.10;43.20;;;;;;5000642;28;20038;-63
2023/06/04 10:56:54;;;;;;;2.70;2.45;;;26.30;42.80;;;;;;5002371;28;20401;-63
2023/06/04 10:59:20;;;;;;;2.90;2.70;;;26.30;42.70;;;;;;5001530;28;20112;-63
2023/06/04 11:01:47;;;;;;;3.00;2.47;;;26.30;42.40;;;;;;5003116;28;20030;-63
2023/06/04 11:04:25;;;;;;;36.72;4.15;;;26.40;42.30;;;;;;5003281;28;20120;-63
2023/06/04 11:07:10;;;;;;;3.50;3.10;;;26.40;40.10;;;;;;5003676;28;20509;-63
2023/06/04 11:09:37;;;;;;;3.92;3.20;;;26.40;40.80;;;;;;5003135;28;20585;-62
2023/06/04 11:12:05;;;;;;;4.00;2.97;;;26.40;41.60;;;;;;4983694;28;20046;-61
2023/06/04 11:14:31;;;;;;;4.85;3.05;;;26.40;41.40;;;;;;5009047;28;20793;-63
2023/06/04 11:16:56;;;;;;;3.40;2.90;;;26.30;41.60;;;;;;5009764;28;20092;-62
2023/06/04 11:19:23;;;;;;;2.95;2.75;;;26.30;41.70;;;;;;5004890;28;20038;-63
2023/06/04 11:21:49;;;;;;;6.43;3.30;;;26.30;41.50;;;;;;5003484;28;20085;-63
2023/06/04 11:24:16;;;;;;;3.67;3.05;;;26.30;41.30;;;;;;5005886;28;20068;-61
2023/06/04 11:26:42;;;;;;;3.92;3.28;;;26.40;41.20;;;;;;5004209;28;20391;-63
2023/06/04 11:29:11;;;;;;;3.40;3.10;;;26.40;41.30;;;;;;5003751;28;20042;-63
2023/06/04 11:31:44;;;;;;;6.85;5.43;;;26.40;40.90;;;;;;5002334;28;20022;-63
2023/06/04 11:34:11;;;;;;;4.40;3.53;;;26.40;40.00;;;;;;5005643;28;20375;-63
2023/06/04 11:36:37;;;;;;;3.75;3.15;;;26.40;41.00;;;;;;4999348;28;20192;-63
2023/06/04 11:39:07;;;;;;;3.20;2.90;;;26.40;41.00;;;;;;5003731;28;20597;-62
2023/06/04 11:41:35;;;;;;;5.07;3.10;;;26.30;40.50;;;;;;5004974;28;20033;-63
2023/06/04 11:44:05;;;;;;;3.60;2.97;;;26.30;40.80;;;;;;5005230;28;20401;-61
2023/06/04 11:46:35;;;;;;;3.50;3.08;;;26.20;40.70;;;;;;5001971;28;20041;-62
2023/06/04 11:49:02;;;;;;;3.42;3.10;;;26.20;40.80;;;;;;5006482;28;20125;-62
2023/06/04 11:51:28;;;;;;;7.15;3.22;;;26.20;41.00;;;;;;5003065;28;20037;-62
2023/06/04 11:53:55;;;;;;;4.72;3.63;;;26.10;40.40;;;;;;5001781;28;20079;-63
2023/06/04 11:56:21;;;;;;;3.58;3.28;;;26.00;40.50;;;;;;5003423;28;20034;-63
2023/06/04 11:58:46;;;;;;;4.03;3.25;;;26.00;40.50;;;;;;5003788;28;20612;-62
2023/06/04 12:01:13;;;;;;;4.40;3.22;;;25.90;40.20;;;;;;5001739;28;20128;-62
2023/06/04 12:03:40;;;;;;;4.47;3.08;;;25.90;40.20;;;;;;5001326;28;20065;-62
2023/06/04 12:06:24;;;;;;;3.97;3.45;;;25.80;40.40;;;;;;5002236;28;20072;-62
2023/06/04 12:08:52;;;;;;;4.28;3.88;;;25.80;40.50;;;;;;5004488;28;20045;-63
2023/06/04 12:11:31;;;;;;;3.78;3.20;;;25.90;40.10;;;;;;5001094;28;20038;-60
2023/06/04 12:13:58;;;;;;;4.82;3.40;;;26.00;40.00;;;;;;5006154;28;20038;-63
2023/06/04 12:16:23;;;;;;;4.53;3.17;;;26.00;40.50;;;;;;5002243;28;20038;-62
2023/06/04 12:18:50;;;;;;;3.90;3.40;;;26.00;40.40;;;;;;5005037;28;20108;-62
2023/06/04 12:21:26;;;;;;;3.95;3.20;;;26.00;39.90;;;;;;4996133;28;20050;-62
2023/06/04 12:24:13;;;;;;;3.83;3.42;;;26.00;39.70;;;;;;5001309;28;20044;-62
2023/06/04 12:26:46;;;;;;;3.47;3.03;;;26.10;40.20;;;;;;4999936;28;20030;-62
2023/06/04 12:29:13;;;;;;;4.40;3.40;;;26.10;40.70;;;;;;5004831;28;20037;-62
2023/06/04 12:31:42;;;;;;;3.53;3.22;;;26.10;40.00;;;;;;4998455;28;20088;-62
2023/06/04 12:34:08;;;;;;;3.38;3.08;;;26.20;39.20;;;;;;5001961;28;20148;-63
2023/06/04 12:36:34;;;;;;;5.22;3.65;;;26.20;39.90;;;;;;4995601;28;20034;-62
2023/06/04 12:39:01;;;;;;;5.10;3.63;;;26.10;39.00;;;;;;5003407;28;20042;-61
2023/06/04 12:41:27;;;;;;;5.90;3.35;;;26.10;39.20;;;;;;5003400;28;20037;-62
2023/06/04 12:43:54;;;;;;;3.40;3.10;;;26.00;39.60;;;;;;4999492;28;20029;-62
2023/06/04 12:46:20;;;;;;;3.95;3.20;;;25.90;39.80;;;;;;5002757;28;20060;-62
2023/06/04 12:48:45;;;;;;;3.20;3.00;;;25.80;39.40;;;;;;5005950;28;20517;-62